createdAt,value
2018-02-16T00:00:05.575Z,1.84
2018-02-16T00:01:10.192Z,1.81
2018-02-16T00:02:14.787Z,1.78
2018-02-16T00:03:19.640Z,1.79
2018-02-16T00:04:24.627Z,1.83
2018-02-16T00:05:29.965Z,1.84
2018-02-16T00:06:35.251Z,1.80
2018-02-16T00:07:40.323Z,1.78
2018-02-16T00:08:45.572Z,1.82
2018-02-16T00:09:50.335Z,1.87
2018-02-16T00:10:55.150Z,1.93
2018-02-16T00:12:00.261Z,1.97
2018-02-16T00:13:04.963Z,2.01
2018-02-16T00:14:09.680Z,1.96
2018-02-16T00:15:14.486Z,1.96
2018-02-16T00:16:19.170Z,1.96
2018-02-16T00:17:23.970Z,1.94
2018-02-16T00:18:28.922Z,1.91
2018-02-16T00:19:33.452Z,1.86
2018-02-16T00:20:38.029Z,1.87
2018-02-16T00:21:42.557Z,1.90
2018-02-16T00:22:47.114Z,1.91
2018-02-16T00:23:51.823Z,1.84
2018-02-16T00:24:56.826Z,1.80
2018-02-16T00:26:01.540Z,1.78
2018-02-16T00:27:06.152Z,1.79
2018-02-16T00:28:10.756Z,1.83
2018-02-16T00:29:15.315Z,1.85
2018-02-16T00:30:20.540Z,1.91
2018-02-16T00:31:25.454Z,1.89
2018-02-16T00:32:30.028Z,1.91
2018-02-16T00:33:34.609Z,1.95
2018-02-16T00:34:39.206Z,1.86
2018-02-16T00:35:43.824Z,1.87
2018-02-16T00:36:48.421Z,1.86
2018-02-16T00:37:53.439Z,1.82
2018-02-16T00:38:58.187Z,1.86
2018-02-16T00:40:03.219Z,1.91
2018-02-16T00:41:07.979Z,1.96
2018-02-16T00:42:12.797Z,2.03
2018-02-16T00:43:17.623Z,2.07
2018-02-16T00:44:22.683Z,2.08
2018-02-16T00:45:27.405Z,2.09
2018-02-16T00:46:32.165Z,2.08
2018-02-16T00:47:36.901Z,2.02
2018-02-16T00:48:41.695Z,1.99
2018-02-16T00:49:46.494Z,2.01
2018-02-16T00:50:51.496Z,2.04
2018-02-16T00:51:56.367Z,2.03
2018-02-16T00:53:01.054Z,2.05
2018-02-16T00:54:05.800Z,2.10
2018-02-16T00:55:10.626Z,2.13
2018-02-16T00:56:15.456Z,2.13
2018-02-16T00:57:20.499Z,2.12
2018-02-16T00:58:25.287Z,2.15
2018-02-16T00:59:30.118Z,2.15
2018-02-16T01:00:34.939Z,2.18
2018-02-16T01:01:39.710Z,2.19
2018-02-16T01:02:44.541Z,2.22
2018-02-16T01:03:49.632Z,2.25
2018-02-16T01:04:54.410Z,2.28
2018-02-16T01:05:59.160Z,2.29
2018-02-16T01:07:04.033Z,2.26
2018-02-16T01:08:08.902Z,2.30
2018-02-16T01:09:13.655Z,2.29
2018-02-16T01:10:18.759Z,2.31
2018-02-16T01:11:23.581Z,2.31
2018-02-16T01:12:28.333Z,2.31
2018-02-16T01:13:33.086Z,2.31
2018-02-16T01:14:37.823Z,2.30
2018-02-16T01:15:42.561Z,2.21
2018-02-16T01:16:48.660Z,2.16
2018-02-16T01:17:53.436Z,2.18
2018-02-16T01:18:58.208Z,2.16
2018-02-16T01:20:03.014Z,2.18
2018-02-16T01:21:07.874Z,2.20
2018-02-16T01:22:12.656Z,2.24
2018-02-16T01:23:17.696Z,2.26
2018-02-16T01:24:22.379Z,2.25
2018-02-16T01:25:27.071Z,2.25
2018-02-16T01:26:32.210Z,2.25
2018-02-16T01:27:36.891Z,2.26
2018-02-16T01:28:41.551Z,2.26
2018-02-16T01:29:46.683Z,2.26
2018-02-16T01:30:51.417Z,2.27
2018-02-16T01:31:56.123Z,2.29
2018-02-16T01:33:00.781Z,2.29
2018-02-16T01:34:05.304Z,2.31
2018-02-16T01:35:09.825Z,2.29
2018-02-16T01:36:14.664Z,2.24
2018-02-16T01:37:19.434Z,2.15
2018-02-16T01:38:24.328Z,2.17
2018-02-16T01:39:29.058Z,2.17
2018-02-16T01:40:33.772Z,2.11
2018-02-16T01:41:38.445Z,2.12
2018-02-16T01:42:43.402Z,2.15
2018-02-16T01:43:48.082Z,2.17
2018-02-16T01:44:52.762Z,2.11
2018-02-16T01:45:57.497Z,2.10
2018-02-16T01:47:02.169Z,2.10
2018-02-16T01:48:06.675Z,2.11
2018-02-16T01:49:11.776Z,2.09
2018-02-16T01:50:16.378Z,2.12
2018-02-16T01:51:20.994Z,2.15
2018-02-16T01:52:25.583Z,2.17
2018-02-16T01:53:30.236Z,2.17
2018-02-16T01:54:34.836Z,2.16
2018-02-16T01:55:39.873Z,2.13
2018-02-16T01:56:44.666Z,2.12
2018-02-16T01:57:49.425Z,2.15
2018-02-16T01:58:54.202Z,2.18
2018-02-16T01:59:58.977Z,2.16
2018-02-16T02:01:03.827Z,1.98
2018-02-16T02:02:08.885Z,1.87
2018-02-16T02:03:13.745Z,1.84
2018-02-16T02:04:18.630Z,1.90
2018-02-16T02:05:23.423Z,1.93
2018-02-16T02:06:28.186Z,1.87
2018-02-16T02:07:32.958Z,1.80
2018-02-16T02:08:38.019Z,1.79
2018-02-16T02:09:42.862Z,1.82
2018-02-16T02:10:47.638Z,1.88
2018-02-16T02:11:52.383Z,1.93
2018-02-16T02:12:57.267Z,1.98
2018-02-16T02:14:02.180Z,2.02
2018-02-16T02:15:07.247Z,2.06
2018-02-16T02:16:12.059Z,2.08
2018-02-16T02:17:16.870Z,2.06
2018-02-16T02:18:21.668Z,2.05
2018-02-16T02:19:26.458Z,2.11
2018-02-16T02:20:31.277Z,2.15
2018-02-16T02:21:36.299Z,2.16
2018-02-16T02:22:41.047Z,2.17
2018-02-16T02:23:45.836Z,2.20
2018-02-16T02:24:50.679Z,2.23
2018-02-16T02:25:55.449Z,2.26
2018-02-16T02:27:00.108Z,2.27
2018-02-16T02:28:04.982Z,2.28
2018-02-16T02:29:09.594Z,2.31
2018-02-16T02:30:14.198Z,2.30
2018-02-16T02:31:18.817Z,2.30
2018-02-16T02:32:23.440Z,2.30
2018-02-16T02:33:28.057Z,2.33
2018-02-16T02:34:32.964Z,2.31
2018-02-16T02:35:37.649Z,2.30
2018-02-16T02:36:42.252Z,2.24
2018-02-16T02:37:46.889Z,2.24
2018-02-16T02:38:51.536Z,2.24
2018-02-16T02:39:56.283Z,2.26
2018-02-16T02:41:01.424Z,2.30
2018-02-16T02:42:06.183Z,2.32
2018-02-16T02:43:10.934Z,2.34
2018-02-16T02:44:15.739Z,2.32
2018-02-16T02:45:20.523Z,2.32
2018-02-16T02:46:25.411Z,2.32
2018-02-16T02:47:30.508Z,2.29
2018-02-16T02:48:35.284Z,2.31
2018-02-16T02:49:40.293Z,2.32
2018-02-16T02:50:45.057Z,2.32
2018-02-16T02:51:49.840Z,2.34
2018-02-16T02:52:54.638Z,2.33
2018-02-16T02:54:00.202Z,2.31
2018-02-16T02:55:05.005Z,2.34
2018-02-16T02:56:09.828Z,2.33
2018-02-16T02:57:14.623Z,2.35
2018-02-16T02:58:19.349Z,2.38
2018-02-16T02:59:24.070Z,2.35
2018-02-16T03:00:29.026Z,2.36
2018-02-16T03:01:34.001Z,2.39
2018-02-16T03:02:38.698Z,2.44
2018-02-16T03:03:43.363Z,2.38
2018-02-16T03:04:48.023Z,2.36
2018-02-16T03:05:52.672Z,2.36
2018-02-16T03:06:57.466Z,2.40
2018-02-16T03:08:01.968Z,2.40
2018-02-16T03:09:06.509Z,2.35
2018-02-16T03:10:11.015Z,2.36
2018-02-16T03:11:15.680Z,2.37
2018-02-16T03:12:20.375Z,2.39
2018-02-16T03:13:25.455Z,2.39
2018-02-16T03:14:30.197Z,2.40
2018-02-16T03:15:34.901Z,2.43
2018-02-16T03:16:39.593Z,2.36
2018-02-16T03:17:44.264Z,2.33
2018-02-16T03:18:48.921Z,2.27
2018-02-16T03:19:53.867Z,2.26
2018-02-16T03:20:58.553Z,2.28
2018-02-16T03:22:03.219Z,2.31
2018-02-16T03:23:07.864Z,2.31
2018-02-16T03:24:12.531Z,2.32
2018-02-16T03:25:17.334Z,2.34
2018-02-16T03:26:22.469Z,2.37
2018-02-16T03:27:27.251Z,2.40
2018-02-16T03:28:32.075Z,2.41
2018-02-16T03:29:36.913Z,2.41
2018-02-16T03:30:41.703Z,2.37
2018-02-16T03:31:46.515Z,2.30
2018-02-16T03:32:51.574Z,2.24
2018-02-16T03:33:56.431Z,2.19
2018-02-16T03:35:01.220Z,2.21
2018-02-16T03:36:06.021Z,2.23
2018-02-16T03:37:10.840Z,2.28
2018-02-16T03:38:15.568Z,2.32
2018-02-16T03:39:21.629Z,2.36
2018-02-16T03:40:26.368Z,2.38
2018-02-16T03:41:31.144Z,2.31
2018-02-16T03:42:35.979Z,2.21
2018-02-16T03:43:40.748Z,2.20
2018-02-16T03:44:45.505Z,2.20
2018-02-16T03:45:50.553Z,1.99
2018-02-16T03:46:55.306Z,1.92
2018-02-16T03:48:00.081Z,1.95
2018-02-16T03:49:05.433Z,1.94
2018-02-16T03:50:10.179Z,2.01
2018-02-16T03:51:14.990Z,2.02
2018-02-16T03:52:20.101Z,1.93
2018-02-16T03:53:24.905Z,1.97
2018-02-16T03:54:29.996Z,2.02
2018-02-16T03:55:34.760Z,2.06
2018-02-16T03:56:39.540Z,2.07
2018-02-16T03:57:44.430Z,2.06
2018-02-16T03:58:49.495Z,2.09
2018-02-16T03:59:54.284Z,2.13
2018-02-16T04:00:59.067Z,2.11
2018-02-16T04:02:03.869Z,2.08
2018-02-16T04:03:08.504Z,2.08
2018-02-16T04:04:13.188Z,2.06
2018-02-16T04:05:18.159Z,2.07
2018-02-16T04:06:22.915Z,2.09
2018-02-16T04:07:27.580Z,2.12
2018-02-16T04:08:32.334Z,2.12
2018-02-16T04:09:37.063Z,2.08
2018-02-16T04:10:42.370Z,2.08
2018-02-16T04:11:47.556Z,2.05
2018-02-16T04:12:52.454Z,2.05
2018-02-16T04:13:57.302Z,2.07
2018-02-16T04:15:02.096Z,2.10
2018-02-16T04:16:06.780Z,2.09
2018-02-16T04:17:11.483Z,2.08
2018-02-16T04:18:16.495Z,2.05
2018-02-16T04:19:22.042Z,2.03
2018-02-16T04:20:26.716Z,2.02
2018-02-16T04:21:31.373Z,2.04
2018-02-16T04:22:36.124Z,2.05
2018-02-16T04:23:40.789Z,2.05
2018-02-16T04:24:45.749Z,2.04
2018-02-16T04:25:50.429Z,1.95
2018-02-16T04:26:55.118Z,1.98
2018-02-16T04:27:59.788Z,2.03
2018-02-16T04:29:04.500Z,2.05
2018-02-16T04:30:09.149Z,2.04
2018-02-16T04:31:14.160Z,2.04
2018-02-16T04:32:18.870Z,2.04
2018-02-16T04:33:23.620Z,2.08
2018-02-16T04:34:28.371Z,2.06
2018-02-16T04:35:33.166Z,2.03
2018-02-16T04:36:37.898Z,2.00
2018-02-16T04:37:42.945Z,2.04
2018-02-16T04:38:47.811Z,2.07
2018-02-16T04:39:52.479Z,2.02
2018-02-16T04:40:57.147Z,2.04
2018-02-16T04:42:01.823Z,2.10
2018-02-16T04:43:06.484Z,2.12
2018-02-16T04:44:11.615Z,2.15
2018-02-16T04:45:16.367Z,2.19
2018-02-16T04:46:21.125Z,2.23
2018-02-16T04:47:25.916Z,2.17
2018-02-16T04:48:30.716Z,2.15
2018-02-16T04:49:36.088Z,2.19
2018-02-16T04:50:41.205Z,2.23
2018-02-16T04:51:46.053Z,2.12
2018-02-16T04:52:50.791Z,1.97
2018-02-16T04:53:55.535Z,1.92
2018-02-16T04:55:00.313Z,1.93
2018-02-16T04:56:05.092Z,1.99
2018-02-16T04:57:10.251Z,2.03
2018-02-16T04:58:15.075Z,2.00
2018-02-16T04:59:19.883Z,1.96
2018-02-16T05:00:24.645Z,1.98
2018-02-16T05:01:29.391Z,2.01
2018-02-16T05:02:34.048Z,1.97
2018-02-16T05:03:39.192Z,1.95
2018-02-16T05:04:43.905Z,2.00
2018-02-16T05:05:48.683Z,1.97
2018-02-16T05:06:53.471Z,1.97
2018-02-16T05:07:58.254Z,2.02
2018-02-16T05:09:03.214Z,2.05
2018-02-16T05:10:08.302Z,2.07
2018-02-16T05:11:13.086Z,2.02
2018-02-16T05:12:17.896Z,2.03
2018-02-16T05:13:22.734Z,2.02
2018-02-16T05:14:27.496Z,2.08
2018-02-16T05:15:32.262Z,2.13
2018-02-16T05:16:37.306Z,2.15
2018-02-16T05:17:42.312Z,2.18
2018-02-16T05:18:47.060Z,2.18
2018-02-16T05:19:51.882Z,2.19
2018-02-16T05:20:56.687Z,2.04
2018-02-16T05:22:01.507Z,1.97
2018-02-16T05:23:06.569Z,2.02
2018-02-16T05:24:11.396Z,2.02
2018-02-16T05:25:16.204Z,2.04
2018-02-16T05:26:20.894Z,2.04
2018-02-16T05:27:25.600Z,2.00
2018-02-16T05:28:30.321Z,2.06
2018-02-16T05:29:35.285Z,2.07
2018-02-16T05:30:40.007Z,2.13
2018-02-16T05:31:44.689Z,2.16
2018-02-16T05:32:49.189Z,2.15
2018-02-16T05:33:53.905Z,2.18
2018-02-16T05:34:58.403Z,2.21
2018-02-16T05:36:03.449Z,2.21
2018-02-16T05:37:08.517Z,2.18
2018-02-16T05:38:13.029Z,2.04
2018-02-16T05:39:17.530Z,2.00
2018-02-16T05:40:22.055Z,1.98
2018-02-16T05:41:26.812Z,1.97
2018-02-16T05:42:31.681Z,1.98
2018-02-16T05:43:37.130Z,1.97
2018-02-16T05:44:41.651Z,2.00
2018-02-16T05:45:46.238Z,2.02
2018-02-16T05:46:50.795Z,2.00
2018-02-16T05:47:55.316Z,1.96
2018-02-16T05:49:00.163Z,1.96
2018-02-16T05:50:04.658Z,1.96
2018-02-16T05:51:09.219Z,1.95
2018-02-16T05:52:13.753Z,1.91
2018-02-16T05:53:18.508Z,1.89
2018-02-16T05:54:23.330Z,1.94
2018-02-16T05:55:29.050Z,1.96
2018-02-16T05:56:33.612Z,1.93
2018-02-16T05:57:38.126Z,1.97
2018-02-16T05:58:43.310Z,2.00
2018-02-16T05:59:47.869Z,2.05
2018-02-16T06:00:52.411Z,2.04
2018-02-16T06:01:57.521Z,2.05
2018-02-16T06:03:02.192Z,2.06
2018-02-16T06:04:06.816Z,2.06
2018-02-16T06:05:11.416Z,2.04
2018-02-16T06:06:15.967Z,2.03
2018-02-16T06:07:20.625Z,2.03
2018-02-16T06:08:25.553Z,2.06
2018-02-16T06:09:31.398Z,2.01
2018-02-16T06:10:36.045Z,2.01
2018-02-16T06:11:40.629Z,2.00
2018-02-16T06:12:47.661Z,1.97
2018-02-16T06:13:53.646Z,1.98
2018-02-16T06:14:59.165Z,1.99
2018-02-16T06:16:03.975Z,1.98
2018-02-16T06:17:09.560Z,1.98
2018-02-16T06:18:14.379Z,1.93
2018-02-16T06:19:19.142Z,1.92
2018-02-16T06:20:23.863Z,1.92
2018-02-16T06:21:28.928Z,1.90
2018-02-16T06:22:33.784Z,1.89
2018-02-16T06:23:38.595Z,1.90
2018-02-16T06:24:43.406Z,1.90
2018-02-16T06:25:48.198Z,1.94
2018-02-16T06:26:53.014Z,1.91
2018-02-16T06:27:58.200Z,1.91
2018-02-16T06:29:02.829Z,1.86
2018-02-16T06:30:08.417Z,1.89
2018-02-16T06:31:13.934Z,1.88
2018-02-16T06:32:19.119Z,1.83
2018-02-16T06:33:24.834Z,1.89
2018-02-16T06:34:29.909Z,1.95
2018-02-16T06:35:34.682Z,1.83
2018-02-16T06:36:39.391Z,1.79
2018-02-16T06:37:44.183Z,1.74
2018-02-16T06:38:48.907Z,1.77
2018-02-16T06:39:53.532Z,1.74
2018-02-16T06:40:58.609Z,1.78
2018-02-16T06:42:03.348Z,1.89
2018-02-16T06:43:09.017Z,1.87
2018-02-16T06:44:13.818Z,1.90
2018-02-16T06:45:18.608Z,1.95
2018-02-16T06:46:23.484Z,1.94
2018-02-16T06:47:28.551Z,1.96
2018-02-16T06:48:33.211Z,1.97
2018-02-16T06:49:37.967Z,2.01
2018-02-16T06:50:42.633Z,2.01
2018-02-16T06:51:47.345Z,2.00
2018-02-16T06:52:52.036Z,1.98
2018-02-16T06:53:57.057Z,1.94
2018-02-16T06:55:01.789Z,1.94
2018-02-16T06:56:06.571Z,1.92
2018-02-16T06:57:11.252Z,1.94
2018-02-16T06:58:15.795Z,1.95
2018-02-16T06:59:20.277Z,1.99
2018-02-16T07:00:25.221Z,2.00
2018-02-16T07:01:29.785Z,2.06
2018-02-16T07:02:34.440Z,2.12
2018-02-16T07:03:38.988Z,2.10
2018-02-16T07:04:44.885Z,2.12
2018-02-16T07:05:49.856Z,2.08
2018-02-16T07:06:54.526Z,2.14
2018-02-16T07:07:59.299Z,2.14
2018-02-16T07:09:04.208Z,2.11
2018-02-16T07:10:08.921Z,2.14
2018-02-16T07:11:13.630Z,2.08
2018-02-16T07:12:18.517Z,2.11
2018-02-16T07:13:23.128Z,2.08
2018-02-16T07:14:27.800Z,2.10
2018-02-16T07:15:32.400Z,2.05
2018-02-16T07:16:37.006Z,2.04
2018-02-16T07:17:41.604Z,2.05
2018-02-16T07:18:46.561Z,2.04
2018-02-16T07:19:51.141Z,2.04
2018-02-16T07:20:55.764Z,2.06
2018-02-16T07:22:00.377Z,2.15
2018-02-16T07:23:05.008Z,2.03
2018-02-16T07:24:09.593Z,2.10
2018-02-16T07:25:14.704Z,2.05
2018-02-16T07:26:19.520Z,2.17
2018-02-16T07:27:24.261Z,2.18
2018-02-16T07:28:28.986Z,2.16
2018-02-16T07:29:33.641Z,2.19
2018-02-16T07:30:38.316Z,2.21
2018-02-16T07:31:43.399Z,2.19
2018-02-16T07:32:48.155Z,2.22
2018-02-16T07:33:52.765Z,2.25
2018-02-16T07:34:57.803Z,2.30
2018-02-16T07:36:02.423Z,2.21
2018-02-16T07:37:07.020Z,2.18
2018-02-16T07:38:12.003Z,2.17
2018-02-16T07:39:16.577Z,2.14
2018-02-16T07:40:21.261Z,2.15
2018-02-16T07:41:25.891Z,2.20
2018-02-16T07:42:30.477Z,2.21
2018-02-16T07:43:35.131Z,2.25
2018-02-16T07:44:40.052Z,2.21
2018-02-16T07:45:44.653Z,2.19
2018-02-16T07:46:49.268Z,2.17
2018-02-16T07:47:53.889Z,2.21
2018-02-16T07:48:58.580Z,2.15
2018-02-16T07:50:03.620Z,2.19
2018-02-16T07:51:08.716Z,2.17
2018-02-16T07:52:13.501Z,2.15
2018-02-16T07:53:18.155Z,2.17
2018-02-16T07:54:22.849Z,2.16
2018-02-16T07:55:27.513Z,2.24
2018-02-16T07:56:32.209Z,2.23
2018-02-16T07:57:37.472Z,2.24
2018-02-16T07:58:42.247Z,2.20
2018-02-16T07:59:47.070Z,2.20
2018-02-16T08:00:51.812Z,2.25
2018-02-16T08:01:56.512Z,2.28
2018-02-16T08:03:01.255Z,2.33
2018-02-16T08:04:06.252Z,2.33
2018-02-16T08:05:10.955Z,2.22
2018-02-16T08:06:15.675Z,2.19
2018-02-16T08:07:20.402Z,2.25
2018-02-16T08:08:24.970Z,2.24
2018-02-16T08:09:29.671Z,2.25
2018-02-16T08:10:34.675Z,2.31
2018-02-16T08:11:39.196Z,2.30
2018-02-16T08:12:43.798Z,2.30
2018-02-16T08:13:48.476Z,2.40
2018-02-16T08:14:53.226Z,2.39
2018-02-16T08:15:57.915Z,2.38
2018-02-16T08:17:02.988Z,2.37
2018-02-16T08:18:08.815Z,2.38
2018-02-16T08:19:13.528Z,2.56
2018-02-16T08:20:18.244Z,2.59
2018-02-16T08:21:23.043Z,2.50
2018-02-16T08:22:27.756Z,2.47
2018-02-16T08:23:33.028Z,2.49
2018-02-16T08:24:37.734Z,2.43
2018-02-16T08:25:42.473Z,2.52
2018-02-16T08:26:47.406Z,2.53
2018-02-16T08:27:52.191Z,2.56
2018-02-16T08:28:56.920Z,2.61
2018-02-16T08:30:02.172Z,2.64
2018-02-16T08:31:07.091Z,2.55
2018-02-16T08:32:12.996Z,2.55
2018-02-16T08:33:17.816Z,2.60
2018-02-16T08:34:22.645Z,2.58
2018-02-16T08:35:27.478Z,2.57
2018-02-16T08:36:32.752Z,2.64
2018-02-16T08:37:37.639Z,2.65
2018-02-16T08:38:42.504Z,2.66
2018-02-16T08:39:47.366Z,2.71
2018-02-16T08:40:53.086Z,2.74
2018-02-16T08:41:57.764Z,2.62
2018-02-16T08:43:02.999Z,2.74
2018-02-16T08:44:07.764Z,2.97
2018-02-16T08:45:12.506Z,3.11
2018-02-16T08:46:17.303Z,3.10
2018-02-16T08:47:22.003Z,2.96
2018-02-16T08:48:26.684Z,2.92
2018-02-16T08:49:31.665Z,2.77
2018-02-16T08:50:36.246Z,2.75
2018-02-16T08:51:40.928Z,2.79
2018-02-16T08:52:45.554Z,2.85
2018-02-16T08:53:50.149Z,2.74
2018-02-16T08:54:54.920Z,2.68
2018-02-16T08:56:00.064Z,2.72
2018-02-16T08:57:04.815Z,2.86
2018-02-16T08:58:09.516Z,2.89
2018-02-16T08:59:14.441Z,2.87
2018-02-16T09:00:19.148Z,2.95
2018-02-16T09:01:23.885Z,3.06
2018-02-16T09:02:31.327Z,2.95
2018-02-16T09:03:36.203Z,2.88
2018-02-16T09:04:40.986Z,2.80
2018-02-16T09:05:45.687Z,2.82
2018-02-16T09:06:50.441Z,2.82
2018-02-16T09:07:55.218Z,2.97
2018-02-16T09:09:05.915Z,2.82
2018-02-16T09:10:10.765Z,2.79
2018-02-16T09:11:28.185Z,2.76
2018-02-16T09:12:32.883Z,2.71
2018-02-16T09:13:45.478Z,2.70
2018-02-16T09:14:53.336Z,2.87
2018-02-16T09:15:58.603Z,3.11
2018-02-16T09:17:03.445Z,3.12
2018-02-16T09:18:08.173Z,3.56
2018-02-16T09:19:15.130Z,3.91
2018-02-16T09:20:19.865Z,3.74
2018-02-16T09:21:24.700Z,3.64
2018-02-16T09:22:29.910Z,3.58
2018-02-16T09:23:34.753Z,3.28
2018-02-16T09:24:39.540Z,3.34
2018-02-16T09:25:44.314Z,3.41
2018-02-16T09:26:49.181Z,3.58
2018-02-16T09:27:54.003Z,3.53
2018-02-16T09:28:58.791Z,3.27
2018-02-16T09:30:03.552Z,3.42
2018-02-16T09:31:08.184Z,4.22
2018-02-16T09:32:12.815Z,4.54
2018-02-16T09:33:17.472Z,4.40
2018-02-16T09:34:22.364Z,4.01
2018-02-16T09:35:26.969Z,4.27
2018-02-16T09:36:32.973Z,4.34
2018-02-16T09:37:39.525Z,4.18
2018-02-16T09:38:44.245Z,4.24
2018-02-16T09:39:50.224Z,4.00
2018-02-16T09:40:56.239Z,3.81
2018-02-16T09:42:00.897Z,4.25
2018-02-16T09:43:05.528Z,5.18
2018-02-16T09:44:10.105Z,4.95
2018-02-16T09:45:14.694Z,5.63
2018-02-16T09:46:20.486Z,6.24
2018-02-16T09:47:25.626Z,5.70
2018-02-16T09:48:30.437Z,5.18
2018-02-16T09:49:35.217Z,4.52
2018-02-16T09:50:40.848Z,4.65
2018-02-16T09:51:45.631Z,5.30
2018-02-16T09:52:50.314Z,5.08
2018-02-16T09:53:55.423Z,4.71
2018-02-16T09:55:01.905Z,4.62
2018-02-16T09:56:06.668Z,4.80
2018-02-16T09:57:11.416Z,5.32
2018-02-16T09:58:16.124Z,5.31
2018-02-16T09:59:21.007Z,4.78
2018-02-16T10:00:26.370Z,4.53
2018-02-16T10:01:31.027Z,4.71
2018-02-16T10:02:35.816Z,4.36
2018-02-16T10:03:40.615Z,4.54
2018-02-16T10:04:45.407Z,5.11
2018-02-16T10:05:50.348Z,5.35
2018-02-16T10:06:56.459Z,4.70
2018-02-16T10:08:01.313Z,4.39
2018-02-16T10:09:06.474Z,4.25
2018-02-16T10:10:11.401Z,4.08
2018-02-16T10:11:16.799Z,4.04
2018-02-16T10:12:21.642Z,4.20
2018-02-16T10:13:26.662Z,3.94
2018-02-16T10:14:31.359Z,3.61
2018-02-16T10:15:36.017Z,3.47
2018-02-16T10:16:40.770Z,3.42
2018-02-16T10:17:45.724Z,3.47
2018-02-16T10:18:50.548Z,3.53
2018-02-16T10:19:55.657Z,3.59
2018-02-16T10:21:00.515Z,3.55
2018-02-16T10:22:05.531Z,3.50
2018-02-16T10:23:10.409Z,3.71
2018-02-16T10:24:15.190Z,3.62
2018-02-16T10:25:19.990Z,3.63
2018-02-16T10:26:25.086Z,3.68
2018-02-16T10:27:29.733Z,3.80
2018-02-16T10:28:34.395Z,4.01
2018-02-16T10:29:39.057Z,3.84
2018-02-16T10:30:43.710Z,3.66
2018-02-16T10:31:48.467Z,3.60
2018-02-16T10:32:53.712Z,3.65
2018-02-16T10:33:58.526Z,3.58
2018-02-16T10:35:03.436Z,3.63
2018-02-16T10:36:08.202Z,3.69
2018-02-16T10:37:12.923Z,3.82
2018-02-16T10:38:17.786Z,3.83
2018-02-16T10:39:22.943Z,3.83
2018-02-16T10:40:28.034Z,3.86
2018-02-16T10:41:32.834Z,4.54
2018-02-16T10:42:37.690Z,4.81
2018-02-16T10:43:42.442Z,4.19
2018-02-16T10:44:47.289Z,4.85
2018-02-16T10:45:52.520Z,5.72
2018-02-16T10:46:58.383Z,6.04
2018-02-16T10:48:03.974Z,6.30
2018-02-16T10:49:08.816Z,6.31
2018-02-16T10:50:13.534Z,6.24
2018-02-16T10:51:18.249Z,6.89
2018-02-16T10:52:23.352Z,7.12
2018-02-16T10:53:28.148Z,6.18
2018-02-16T10:54:32.986Z,5.17
2018-02-16T10:55:38.532Z,4.37
2018-02-16T10:56:43.333Z,4.28
2018-02-16T10:57:48.085Z,3.96
2018-02-16T10:58:53.091Z,3.79
2018-02-16T10:59:57.748Z,3.84
2018-02-16T11:01:06.447Z,3.77
2018-02-16T11:02:15.180Z,3.77
2018-02-16T11:03:56.828Z,3.73
2018-02-16T11:05:05.893Z,3.88
2018-02-16T11:06:13.240Z,4.34
2018-02-16T11:07:22.044Z,4.46
2018-02-16T11:08:30.868Z,4.04
2018-02-16T11:09:35.620Z,3.84
2018-02-16T11:10:40.725Z,4.58
2018-02-16T11:11:45.531Z,5.43
2018-02-16T11:12:51.021Z,6.20
2018-02-16T11:13:55.727Z,6.69
2018-02-16T11:15:00.410Z,6.23
2018-02-16T11:16:05.024Z,5.78
2018-02-16T11:17:09.850Z,5.77
2018-02-16T11:18:14.465Z,6.75
2018-02-16T11:19:19.268Z,6.85
2018-02-16T11:20:24.094Z,6.53
2018-02-16T11:21:28.901Z,6.64
2018-02-16T11:22:34.255Z,6.02
2018-02-16T11:23:39.037Z,6.05
2018-02-16T11:24:43.832Z,6.46
2018-02-16T11:25:48.606Z,6.70
2018-02-16T11:26:53.340Z,7.11
2018-02-16T11:27:58.172Z,6.36
2018-02-16T11:29:03.390Z,5.90
2018-02-16T11:30:08.275Z,5.28
2018-02-16T11:31:13.090Z,6.22
2018-02-16T11:32:17.919Z,6.81
2018-02-16T11:33:22.769Z,6.96
2018-02-16T11:34:27.576Z,8.01
2018-02-16T11:35:41.308Z,7.98
2018-02-16T11:36:55.258Z,8.19
2018-02-16T11:38:00.338Z,6.83
2018-02-16T11:39:05.309Z,6.57
2018-02-16T11:40:10.211Z,7.03
2018-02-16T11:41:16.529Z,7.55
2018-02-16T11:42:21.911Z,7.64
2018-02-16T11:43:26.744Z,8.11
2018-02-16T11:44:31.582Z,7.76
2018-02-16T11:45:36.262Z,7.14
2018-02-16T11:46:41.184Z,6.70
2018-02-16T11:47:45.995Z,6.17
2018-02-16T11:48:51.219Z,6.31
2018-02-16T11:49:56.052Z,7.50
2018-02-16T11:51:00.764Z,7.27
2018-02-16T11:52:05.618Z,7.06
2018-02-16T11:53:10.485Z,8.00
2018-02-16T11:54:15.286Z,7.83
2018-02-16T11:55:20.326Z,7.89
2018-02-16T11:56:25.004Z,8.47
2018-02-16T11:57:29.697Z,8.29
2018-02-16T11:58:34.380Z,9.07
2018-02-16T11:59:39.083Z,9.08
2018-02-16T12:00:43.734Z,8.95
2018-02-16T12:01:48.826Z,8.56
2018-02-16T12:02:53.446Z,9.16
2018-02-16T12:03:58.041Z,8.67
2018-02-16T12:05:03.104Z,8.86
2018-02-16T12:06:07.775Z,7.94
2018-02-16T12:07:12.482Z,8.18
2018-02-16T12:08:17.432Z,8.01
2018-02-16T12:09:21.994Z,7.13
2018-02-16T12:10:26.553Z,7.46
2018-02-16T12:11:31.066Z,7.18
2018-02-16T12:12:35.658Z,7.59
2018-02-16T12:13:40.248Z,8.01
2018-02-16T12:14:45.020Z,7.19
2018-02-16T12:15:49.573Z,6.95
2018-02-16T12:16:54.101Z,7.67
2018-02-16T12:17:58.723Z,7.53
2018-02-16T12:19:03.327Z,7.60
2018-02-16T12:20:07.969Z,7.81
2018-02-16T12:21:12.981Z,7.65
2018-02-16T12:22:18.248Z,7.51
2018-02-16T12:23:23.049Z,7.17
2018-02-16T12:24:27.856Z,7.46
2018-02-16T12:25:32.684Z,7.00
2018-02-16T12:26:37.542Z,6.78
2018-02-16T12:27:42.835Z,7.15
2018-02-16T12:28:47.630Z,6.86
2018-02-16T12:29:52.494Z,6.35
2018-02-16T12:30:57.270Z,5.68
2018-02-16T12:32:02.136Z,5.10
2018-02-16T12:33:07.860Z,4.78
2018-02-16T12:34:13.154Z,4.88
2018-02-16T12:35:17.984Z,5.52
2018-02-16T12:36:22.834Z,6.62
2018-02-16T12:37:27.608Z,7.18
2018-02-16T12:38:32.422Z,7.49
2018-02-16T12:39:37.246Z,7.92
2018-02-16T12:40:42.490Z,6.61
2018-02-16T12:41:47.596Z,7.16
2018-02-16T12:42:52.394Z,7.63
2018-02-16T12:43:58.987Z,7.29
2018-02-16T12:45:04.247Z,6.78
2018-02-16T12:46:09.033Z,6.83
2018-02-16T12:47:14.250Z,6.98
2018-02-16T12:48:19.258Z,6.62
2018-02-16T12:49:24.259Z,7.09
2018-02-16T12:50:29.312Z,7.88
2018-02-16T12:51:34.084Z,8.74
2018-02-16T12:52:38.909Z,9.15
2018-02-16T12:53:44.304Z,8.44
2018-02-16T12:54:49.191Z,8.67
2018-02-16T12:55:54.002Z,8.74
2018-02-16T12:56:58.893Z,8.70
2018-02-16T12:58:03.989Z,7.73
2018-02-16T12:59:08.859Z,7.42
2018-02-16T13:00:14.258Z,8.14
2018-02-16T13:01:19.046Z,7.64
2018-02-16T13:02:23.901Z,7.79
2018-02-16T13:03:28.700Z,7.55
2018-02-16T13:04:33.543Z,7.86
2018-02-16T13:05:38.545Z,8.63
2018-02-16T13:06:43.812Z,9.43
2018-02-16T13:07:48.488Z,9.62
2018-02-16T13:08:53.297Z,9.31
2018-02-16T13:09:58.072Z,8.03
2018-02-16T13:11:03.290Z,7.72
2018-02-16T13:12:08.115Z,8.08
2018-02-16T13:13:13.313Z,8.11
2018-02-16T13:14:18.136Z,8.01
2018-02-16T13:15:22.966Z,7.47
2018-02-16T13:16:27.744Z,8.30
2018-02-16T13:17:32.543Z,7.17
2018-02-16T13:18:37.397Z,7.34
2018-02-16T13:19:42.438Z,7.76
2018-02-16T13:20:47.226Z,7.91
2018-02-16T13:21:52.099Z,8.35
2018-02-16T13:22:56.901Z,8.66
2018-02-16T13:24:01.689Z,7.67
2018-02-16T13:25:06.460Z,6.80
2018-02-16T13:26:11.612Z,6.96
2018-02-16T13:27:16.368Z,7.07
2018-02-16T13:28:21.171Z,6.59
2018-02-16T13:29:25.903Z,6.10
2018-02-16T13:30:30.653Z,7.09
2018-02-16T13:31:35.441Z,7.36
2018-02-16T13:32:40.509Z,7.40
2018-02-16T13:33:45.242Z,7.63
2018-02-16T13:34:50.076Z,7.01
2018-02-16T13:35:56.467Z,7.29
2018-02-16T13:37:01.188Z,6.68
2018-02-16T13:38:05.954Z,6.65
2018-02-16T13:39:11.037Z,6.75
2018-02-16T13:40:15.762Z,6.94
2018-02-16T13:41:20.585Z,6.56
2018-02-16T13:42:26.304Z,6.46
2018-02-16T13:43:31.170Z,6.54
2018-02-16T13:44:36.050Z,6.93
2018-02-16T13:45:41.157Z,6.50
2018-02-16T13:46:45.887Z,7.13
2018-02-16T13:47:50.502Z,7.43
2018-02-16T13:48:55.302Z,7.18
2018-02-16T13:50:00.156Z,7.43
2018-02-16T13:51:05.063Z,6.89
2018-02-16T13:52:10.135Z,6.77
2018-02-16T13:53:14.984Z,7.70
2018-02-16T13:54:19.753Z,7.13
2018-02-16T13:55:24.585Z,7.04
2018-02-16T13:56:29.440Z,6.75
2018-02-16T13:57:34.303Z,7.59
2018-02-16T13:58:40.159Z,7.43
2018-02-16T13:59:44.935Z,7.52
2018-02-16T14:00:50.303Z,7.03
2018-02-16T14:01:55.099Z,7.38
2018-02-16T14:02:59.944Z,7.40
2018-02-16T14:04:04.849Z,7.67
2018-02-16T14:05:10.206Z,8.18
2018-02-16T14:06:15.074Z,7.40
2018-02-16T14:07:19.857Z,7.89
2018-02-16T14:08:24.647Z,7.64
2018-02-16T14:09:29.409Z,8.14
2018-02-16T14:10:34.158Z,7.55
2018-02-16T14:11:39.311Z,7.35
2018-02-16T14:12:44.179Z,7.55
2018-02-16T14:13:49.011Z,7.80
2018-02-16T14:14:53.811Z,7.68
2018-02-16T14:15:58.721Z,8.13
2018-02-16T14:17:03.675Z,8.37
2018-02-16T14:18:09.640Z,8.08
2018-02-16T14:19:14.776Z,8.39
2018-02-16T14:20:19.871Z,8.34
2018-02-16T14:21:24.927Z,8.94
2018-02-16T14:22:31.738Z,8.79
2018-02-16T14:23:36.607Z,8.70
2018-02-16T14:24:41.785Z,8.92